sensor_id;sensor_type;location;lat;lon;timestamp;P1;durP1;ratioP1;P2;durP2;ratioP2
57846;SDS011;43675;50.030;21.952;2024-02-23T00:00:06;22.90;;;21.10;;
57846;SDS011;43675;50.030;21.952;2024-02-23T00:02:35;22.70;;;21.00;;
57846;SDS011;43675;50.030;21.952;2024-02-23T00:05:02;22.40;;;20.70;;
57846;SDS011;43675;50.030;21.952;2024-02-23T00:07:29;23.20;;;21.40;;
57846;SDS011;43675;50.030;21.952;2024-02-23T00:09:56;23.00;;;21.20;;
57846;SDS011;43675;50.030;21.952;2024-02-23T00:12:29;20.60;;;18.90;;
57846;SDS011;43675;50.030;21.952;2024-02-23T00:14:56;20.90;;;19.30;;
57846;SDS011;43675;50.030;21.952;2024-02-23T00:17:22;21.90;;;20.20;;
57846;SDS011;43675;50.030;21.952;2024-02-23T00:19:49;21.30;;;19.70;;
57846;SDS011;43675;50.030;21.952;2024-02-23T00:22:16;22.30;;;20.60;;
57846;SDS011;43675;50.030;21.952;2024-02-23T00:24:42;21.80;;;20.10;;
57846;SDS011;43675;50.030;21.952;2024-02-23T00:27:09;21.60;;;19.90;;
57846;SDS011;43675;50.030;21.952;2024-02-23T00:29:36;21.70;;;20.00;;
57846;SDS011;43675;50.030;21.952;2024-02-23T00:32:03;21.70;;;20.00;;
57846;SDS011;43675;50.030;21.952;2024-02-23T00:34:30;21.40;;;19.70;;
57846;SDS011;43675;50.030;21.952;2024-02-23T00:36:57;21.60;;;19.80;;
57846;SDS011;43675;50.030;21.952;2024-02-23T00:39:23;21.20;;;19.60;;
57846;SDS011;43675;50.030;21.952;2024-02-23T00:41:50;21.10;;;19.50;;
57846;SDS011;43675;50.030;21.952;2024-02-23T00:44:16;20.90;;;19.20;;
57846;SDS011;43675;50.030;21.952;2024-02-23T00:46:43;20.50;;;18.80;;
57846;SDS011;43675;50.030;21.952;2024-02-23T00:49:10;20.90;;;19.20;;
57846;SDS011;43675;50.030;21.952;2024-02-23T00:51:36;21.10;;;19.50;;
57846;SDS011;43675;50.030;21.952;2024-02-23T00:54:03;21.20;;;19.60;;
57846;SDS011;43675;50.030;21.952;2024-02-23T00:56:29;21.00;;;19.30;;
57846;SDS011;43675;50.030;21.952;2024-02-23T00:58:56;22.30;;;20.60;;
57846;SDS011;43675;50.030;21.952;2024-02-23T01:01:23;20.70;;;19.20;;
57846;SDS011;43675;50.030;21.952;2024-02-23T01:03:49;20.60;;;19.10;;
57846;SDS011;43675;50.030;21.952;2024-02-23T01:06:16;20.90;;;19.20;;
57846;SDS011;43675;50.030;21.952;2024-02-23T01:08:43;20.30;;;18.80;;
57846;SDS011;43675;50.030;21.952;2024-02-23T01:11:10;20.40;;;18.80;;
57846;SDS011;43675;50.030;21.952;2024-02-23T01:13:43;20.30;;;18.60;;
57846;SDS011;43675;50.030;21.952;2024-02-23T01:16:10;20.30;;;18.80;;
57846;SDS011;43675;50.030;21.952;2024-02-23T01:18:36;20.40;;;18.80;;
57846;SDS011;43675;50.030;21.952;2024-02-23T01:21:03;21.30;;;19.60;;
57846;SDS011;43675;50.030;21.952;2024-02-23T01:23:29;20.20;;;18.60;;
57846;SDS011;43675;50.030;21.952;2024-02-23T01:25:56;19.60;;;18.00;;
57846;SDS011;43675;50.030;21.952;2024-02-23T01:28:23;20.50;;;19.00;;
57846;SDS011;43675;50.030;21.952;2024-02-23T01:30:49;20.20;;;18.60;;
57846;SDS011;43675;50.030;21.952;2024-02-23T01:33:16;20.70;;;18.90;;
57846;SDS011;43675;50.030;21.952;2024-02-23T01:35:43;20.90;;;19.30;;
57846;SDS011;43675;50.030;21.952;2024-02-23T01:38:10;20.60;;;19.00;;
57846;SDS011;43675;50.030;21.952;2024-02-23T01:40:36;20.00;;;18.40;;
57846;SDS011;43675;50.030;21.952;2024-02-23T01:43:03;19.90;;;18.40;;
57846;SDS011;43675;50.030;21.952;2024-02-23T01:45:31;20.20;;;18.60;;
57846;SDS011;43675;50.030;21.952;2024-02-23T01:47:58;19.80;;;18.30;;
57846;SDS011;43675;50.030;21.952;2024-02-23T01:50:25;19.80;;;18.10;;
57846;SDS011;43675;50.030;21.952;2024-02-23T01:52:54;19.80;;;18.10;;
57846;SDS011;43675;50.030;21.952;2024-02-23T01:55:22;20.50;;;18.90;;
57846;SDS011;43675;50.030;21.952;2024-02-23T01:57:49;19.70;;;18.20;;
57846;SDS011;43675;50.030;21.952;2024-02-23T02:00:17;20.10;;;18.50;;
57846;SDS011;43675;50.030;21.952;2024-02-23T02:02:45;20.30;;;18.70;;
57846;SDS011;43675;50.030;21.952;2024-02-23T02:05:20;19.90;;;18.20;;
57846;SDS011;43675;50.030;21.952;2024-02-23T02:07:49;20.30;;;18.70;;
57846;SDS011;43675;50.030;21.952;2024-02-23T02:10:23;19.70;;;18.20;;
57846;SDS011;43675;50.030;21.952;2024-02-23T02:12:50;19.30;;;17.80;;
57846;SDS011;43675;50.030;21.952;2024-02-23T02:15:17;19.50;;;18.00;;
57846;SDS011;43675;50.030;21.952;2024-02-23T02:17:44;18.70;;;17.30;;
57846;SDS011;43675;50.030;21.952;2024-02-23T02:20:13;20.10;;;18.50;;
57846;SDS011;43675;50.030;21.952;2024-02-23T02:22:40;19.80;;;18.20;;
57846;SDS011;43675;50.030;21.952;2024-02-23T02:25:14;19.90;;;18.40;;
57846;SDS011;43675;50.030;21.952;2024-02-23T02:27:40;19.50;;;18.00;;
57846;SDS011;43675;50.030;21.952;2024-02-23T02:30:07;19.00;;;17.60;;
57846;SDS011;43675;50.030;21.952;2024-02-23T02:32:35;18.90;;;17.50;;
57846;SDS011;43675;50.030;21.952;2024-02-23T02:35:02;19.50;;;17.90;;
57846;SDS011;43675;50.030;21.952;2024-02-23T02:37:29;19.80;;;18.20;;
57846;SDS011;43675;50.030;21.952;2024-02-23T02:39:56;20.10;;;18.60;;
57846;SDS011;43675;50.030;21.952;2024-02-23T02:42:22;19.90;;;18.40;;
57846;SDS011;43675;50.030;21.952;2024-02-23T02:44:49;19.60;;;18.20;;
57846;SDS011;43675;50.030;21.952;2024-02-23T02:47:15;19.10;;;17.80;;
57846;SDS011;43675;50.030;21.952;2024-02-23T02:49:42;18.20;;;16.90;;
57846;SDS011;43675;50.030;21.952;2024-02-23T02:52:09;18.80;;;17.40;;
57846;SDS011;43675;50.030;21.952;2024-02-23T02:54:35;19.60;;;18.10;;
57846;SDS011;43675;50.030;21.952;2024-02-23T02:57:02;19.70;;;18.20;;
57846;SDS011;43675;50.030;21.952;2024-02-23T02:59:29;19.40;;;18.00;;
57846;SDS011;43675;50.030;21.952;2024-02-23T03:01:55;19.10;;;17.60;;
57846;SDS011;43675;50.030;21.952;2024-02-23T03:04:22;18.80;;;17.40;;
57846;SDS011;43675;50.030;21.952;2024-02-23T03:06:55;18.80;;;17.40;;
57846;SDS011;43675;50.030;21.952;2024-02-23T03:09:22;19.00;;;17.60;;
57846;SDS011;43675;50.030;21.952;2024-02-23T03:11:55;18.20;;;16.90;;
57846;SDS011;43675;50.030;21.952;2024-02-23T03:14:22;18.40;;;17.00;;
57846;SDS011;43675;50.030;21.952;2024-02-23T03:16:49;18.20;;;16.90;;
57846;SDS011;43675;50.030;21.952;2024-02-23T03:19:15;18.60;;;17.20;;
57846;SDS011;43675;50.030;21.952;2024-02-23T03:21:42;18.40;;;17.10;;
57846;SDS011;43675;50.030;21.952;2024-02-23T03:24:15;18.60;;;17.20;;
57846;SDS011;43675;50.030;21.952;2024-02-23T03:26:42;18.40;;;17.10;;
57846;SDS011;43675;50.030;21.952;2024-02-23T03:29:09;17.80;;;16.50;;
57846;SDS011;43675;50.030;21.952;2024-02-23T03:31:36;18.40;;;17.00;;
57846;SDS011;43675;50.030;21.952;2024-02-23T03:34:03;18.60;;;17.10;;
57846;SDS011;43675;50.030;21.952;2024-02-23T03:36:30;18.50;;;17.00;;
57846;SDS011;43675;50.030;21.952;2024-02-23T03:38:57;17.50;;;16.20;;
57846;SDS011;43675;50.030;21.952;2024-02-23T03:41:23;17.60;;;16.20;;
57846;SDS011;43675;50.030;21.952;2024-02-23T03:43:50;18.60;;;17.20;;
57846;SDS011;43675;50.030;21.952;2024-02-23T03:46:16;18.30;;;16.90;;
57846;SDS011;43675;50.030;21.952;2024-02-23T03:48:43;18.20;;;16.80;;
57846;SDS011;43675;50.030;21.952;2024-02-23T03:51:11;18.10;;;16.70;;
57846;SDS011;43675;50.030;21.952;2024-02-23T03:53:38;17.70;;;16.40;;
57846;SDS011;43675;50.030;21.952;2024-02-23T03:56:05;17.40;;;16.10;;
57846;SDS011;43675;50.030;21.952;2024-02-23T03:58:31;17.50;;;16.30;;
57846;SDS011;43675;50.030;21.952;2024-02-23T04:00:58;18.60;;;17.20;;
57846;SDS011;43675;50.030;21.952;2024-02-23T04:03:25;18.10;;;16.70;;
57846;SDS011;43675;50.030;21.952;2024-02-23T04:05:52;17.50;;;16.30;;
57846;SDS011;43675;50.030;21.952;2024-02-23T04:08:18;17.70;;;16.40;;
57846;SDS011;43675;50.030;21.952;2024-02-23T04:10:45;17.60;;;16.30;;
57846;SDS011;43675;50.030;21.952;2024-02-23T04:13:11;18.20;;;16.80;;
57846;SDS011;43675;50.030;21.952;2024-02-23T04:15:38;16.80;;;15.60;;
57846;SDS011;43675;50.030;21.952;2024-02-23T04:18:11;17.40;;;16.00;;
57846;SDS011;43675;50.030;21.952;2024-02-23T04:20:38;16.80;;;15.50;;
57846;SDS011;43675;50.030;21.952;2024-02-23T04:23:05;17.20;;;15.90;;
57846;SDS011;43675;50.030;21.952;2024-02-23T04:25:31;17.90;;;16.60;;
57846;SDS011;43675;50.030;21.952;2024-02-23T04:27:58;17.90;;;16.50;;
57846;SDS011;43675;50.030;21.952;2024-02-23T04:30:24;18.40;;;16.90;;
57846;SDS011;43675;50.030;21.952;2024-02-23T04:32:51;17.90;;;16.60;;
57846;SDS011;43675;50.030;21.952;2024-02-23T04:35:17;17.60;;;16.20;;
57846;SDS011;43675;50.030;21.952;2024-02-23T04:37:44;18.10;;;16.80;;
57846;SDS011;43675;50.030;21.952;2024-02-23T04:40:11;18.80;;;17.40;;
57846;SDS011;43675;50.030;21.952;2024-02-23T04:42:38;17.60;;;16.30;;
57846;SDS011;43675;50.030;21.952;2024-02-23T04:45:05;18.00;;;16.70;;
57846;SDS011;43675;50.030;21.952;2024-02-23T04:47:32;17.90;;;16.60;;
57846;SDS011;43675;50.030;21.952;2024-02-23T04:49:58;18.30;;;17.00;;
57846;SDS011;43675;50.030;21.952;2024-02-23T04:52:26;18.40;;;17.10;;
57846;SDS011;43675;50.030;21.952;2024-02-23T04:54:53;19.30;;;17.80;;
57846;SDS011;43675;50.030;21.952;2024-02-23T04:57:19;18.70;;;17.40;;
57846;SDS011;43675;50.030;21.952;2024-02-23T04:59:46;19.50;;;18.10;;
57846;SDS011;43675;50.030;21.952;2024-02-23T05:02:13;17.60;;;16.30;;
57846;SDS011;43675;50.030;21.952;2024-02-23T05:04:42;17.70;;;16.30;;
57846;SDS011;43675;50.030;21.952;2024-02-23T05:07:09;17.40;;;16.10;;
57846;SDS011;43675;50.030;21.952;2024-02-23T05:09:35;17.30;;;16.10;;
57846;SDS011;43675;50.030;21.952;2024-02-23T05:12:08;17.60;;;16.30;;
57846;SDS011;43675;50.030;21.952;2024-02-23T05:14:35;17.10;;;15.80;;
57846;SDS011;43675;50.030;21.952;2024-02-23T05:17:02;17.00;;;15.70;;
57846;SDS011;43675;50.030;21.952;2024-02-23T05:19:29;17.10;;;15.80;;
57846;SDS011;43675;50.030;21.952;2024-02-23T05:21:55;17.10;;;15.80;;
57846;SDS011;43675;50.030;21.952;2024-02-23T05:24:22;17.50;;;16.10;;
57846;SDS011;43675;50.030;21.952;2024-02-23T05:26:48;17.20;;;15.80;;
57846;SDS011;43675;50.030;21.952;2024-02-23T05:29:15;17.10;;;15.70;;
57846;SDS011;43675;50.030;21.952;2024-02-23T05:31:48;17.00;;;15.60;;
57846;SDS011;43675;50.030;21.952;2024-02-23T05:34:17;16.60;;;15.40;;
57846;SDS011;43675;50.030;21.952;2024-02-23T05:36:44;16.40;;;15.20;;
57846;SDS011;43675;50.030;21.952;2024-02-23T05:39:11;17.50;;;16.00;;
57846;SDS011;43675;50.030;21.952;2024-02-23T05:41:39;16.90;;;15.50;;
57846;SDS011;43675;50.030;21.952;2024-02-23T05:44:05;16.20;;;15.00;;
57846;SDS011;43675;50.030;21.952;2024-02-23T05:46:35;16.90;;;15.60;;
57846;SDS011;43675;50.030;21.952;2024-02-23T05:49:02;17.20;;;15.90;;
57846;SDS011;43675;50.030;21.952;2024-02-23T05:51:30;17.50;;;16.10;;
57846;SDS011;43675;50.030;21.952;2024-02-23T05:53:57;17.30;;;16.00;;
57846;SDS011;43675;50.030;21.952;2024-02-23T05:56:31;16.90;;;15.70;;
57846;SDS011;43675;50.030;21.952;2024-02-23T05:58:58;17.80;;;16.50;;
57846;SDS011;43675;50.030;21.952;2024-02-23T06:01:24;17.80;;;16.50;;
57846;SDS011;43675;50.030;21.952;2024-02-23T06:03:51;17.80;;;16.40;;
57846;SDS011;43675;50.030;21.952;2024-02-23T06:06:23;18.00;;;16.70;;
57846;SDS011;43675;50.030;21.952;2024-02-23T06:08:50;17.30;;;16.00;;
57846;SDS011;43675;50.030;21.952;2024-02-23T06:11:17;18.00;;;16.60;;
57846;SDS011;43675;50.030;21.952;2024-02-23T06:13:43;17.90;;;16.60;;
57846;SDS011;43675;50.030;21.952;2024-02-23T06:16:10;17.50;;;16.20;;
57846;SDS011;43675;50.030;21.952;2024-02-23T06:18:38;17.70;;;16.40;;
57846;SDS011;43675;50.030;21.952;2024-02-23T06:21:13;17.60;;;16.30;;
57846;SDS011;43675;50.030;21.952;2024-02-23T06:23:40;16.60;;;15.30;;
57846;SDS011;43675;50.030;21.952;2024-02-23T06:26:08;16.40;;;15.30;;
57846;SDS011;43675;50.030;21.952;2024-02-23T06:28:34;15.70;;;14.60;;
57846;SDS011;43675;50.030;21.952;2024-02-23T06:31:01;17.10;;;15.90;;
57846;SDS011;43675;50.030;21.952;2024-02-23T06:33:27;16.40;;;15.30;;
57846;SDS011;43675;50.030;21.952;2024-02-23T06:35:54;16.60;;;15.40;;
57846;SDS011;43675;50.030;21.952;2024-02-23T06:38:21;16.60;;;15.40;;
57846;SDS011;43675;50.030;21.952;2024-02-23T06:40:47;16.30;;;15.20;;
57846;SDS011;43675;50.030;21.952;2024-02-23T06:43:20;16.40;;;15.20;;
57846;SDS011;43675;50.030;21.952;2024-02-23T06:45:47;16.60;;;15.50;;
57846;SDS011;43675;50.030;21.952;2024-02-23T06:48:14;16.50;;;15.20;;
57846;SDS011;43675;50.030;21.952;2024-02-23T06:50:40;15.60;;;14.50;;
57846;SDS011;43675;50.030;21.952;2024-02-23T06:53:07;16.10;;;14.90;;
57846;SDS011;43675;50.030;21.952;2024-02-23T06:55:40;16.00;;;14.80;;
57846;SDS011;43675;50.030;21.952;2024-02-23T06:58:06;16.20;;;15.00;;
57846;SDS011;43675;50.030;21.952;2024-02-23T07:00:33;16.40;;;15.30;;
57846;SDS011;43675;50.030;21.952;2024-02-23T07:02:59;16.70;;;15.50;;
57846;SDS011;43675;50.030;21.952;2024-02-23T07:05:26;16.80;;;15.60;;
57846;SDS011;43675;50.030;21.952;2024-02-23T07:07:53;16.80;;;15.60;;
57846;SDS011;43675;50.030;21.952;2024-02-23T07:10:19;17.70;;;16.40;;
57846;SDS011;43675;50.030;21.952;2024-02-23T07:12:46;18.40;;;17.10;;
57846;SDS011;43675;50.030;21.952;2024-02-23T07:15:13;17.90;;;16.60;;
57846;SDS011;43675;50.030;21.952;2024-02-23T07:17:40;17.60;;;16.40;;
57846;SDS011;43675;50.030;21.952;2024-02-23T07:20:06;16.90;;;15.70;;
57846;SDS011;43675;50.030;21.952;2024-02-23T07:22:33;16.90;;;15.70;;
57846;SDS011;43675;50.030;21.952;2024-02-23T07:25:00;16.30;;;15.10;;
57846;SDS011;43675;50.030;21.952;2024-02-23T07:27:27;17.00;;;15.70;;
57846;SDS011;43675;50.030;21.952;2024-02-23T07:29:59;16.90;;;15.70;;
57846;SDS011;43675;50.030;21.952;2024-02-23T07:32:26;17.00;;;15.80;;
57846;SDS011;43675;50.030;21.952;2024-02-23T07:34:59;16.90;;;15.70;;
57846;SDS011;43675;50.030;21.952;2024-02-23T07:37:26;18.00;;;16.60;;
57846;SDS011;43675;50.030;21.952;2024-02-23T07:39:53;17.60;;;16.20;;
57846;SDS011;43675;50.030;21.952;2024-02-23T07:42:20;17.70;;;16.40;;
57846;SDS011;43675;50.030;21.952;2024-02-23T07:44:52;17.50;;;16.20;;
57846;SDS011;43675;50.030;21.952;2024-02-23T07:47:19;17.80;;;16.50;;
57846;SDS011;43675;50.030;21.952;2024-02-23T07:49:46;17.60;;;16.40;;
57846;SDS011;43675;50.030;21.952;2024-02-23T07:52:12;17.60;;;16.30;;
57846;SDS011;43675;50.030;21.952;2024-02-23T07:54:39;17.40;;;16.10;;
57846;SDS011;43675;50.030;21.952;2024-02-23T07:57:05;17.30;;;16.00;;
57846;SDS011;43675;50.030;21.952;2024-02-23T07:59:32;18.10;;;16.80;;
57846;SDS011;43675;50.030;21.952;2024-02-23T08:01:59;17.70;;;16.50;;
57846;SDS011;43675;50.030;21.952;2024-02-23T08:04:25;17.50;;;16.20;;
57846;SDS011;43675;50.030;21.952;2024-02-23T08:06:59;17.40;;;16.20;;
57846;SDS011;43675;50.030;21.952;2024-02-23T08:09:25;17.70;;;16.50;;
57846;SDS011;43675;50.030;21.952;2024-02-23T08:11:52;17.10;;;15.90;;
57846;SDS011;43675;50.030;21.952;2024-02-23T08:14:18;17.60;;;16.40;;
57846;SDS011;43675;50.030;21.952;2024-02-23T08:16:45;17.80;;;16.50;;
57846;SDS011;43675;50.030;21.952;2024-02-23T08:19:12;18.00;;;16.60;;
57846;SDS011;43675;50.030;21.952;2024-02-23T08:21:38;18.20;;;16.80;;
57846;SDS011;43675;50.030;21.952;2024-02-23T08:24:05;17.70;;;16.50;;
57846;SDS011;43675;50.030;21.952;2024-02-23T08:26:32;17.60;;;16.30;;
57846;SDS011;43675;50.030;21.952;2024-02-23T08:28:58;17.30;;;16.10;;
57846;SDS011;43675;50.030;21.952;2024-02-23T08:31:25;18.00;;;16.70;;
57846;SDS011;43675;50.030;21.952;2024-02-23T08:33:52;17.40;;;16.20;;
57846;SDS011;43675;50.030;21.952;2024-02-23T08:36:18;17.30;;;16.10;;
57846;SDS011;43675;50.030;21.952;2024-02-23T08:38:45;18.10;;;16.80;;
57846;SDS011;43675;50.030;21.952;2024-02-23T08:41:11;17.60;;;16.30;;
57846;SDS011;43675;50.030;21.952;2024-02-23T08:43:38;18.20;;;16.80;;
57846;SDS011;43675;50.030;21.952;2024-02-23T08:46:05;18.70;;;17.20;;
57846;SDS011;43675;50.030;21.952;2024-02-23T08:48:32;18.60;;;17.20;;
57846;SDS011;43675;50.030;21.952;2024-02-23T08:50:59;18.20;;;16.80;;
57846;SDS011;43675;50.030;21.952;2024-02-23T08:53:25;18.00;;;16.60;;
57846;SDS011;43675;50.030;21.952;2024-02-23T08:55:52;18.20;;;16.80;;
57846;SDS011;43675;50.030;21.952;2024-02-23T08:58:19;18.50;;;17.00;;
57846;SDS011;43675;50.030;21.952;2024-02-23T09:00:45;17.10;;;15.80;;
57846;SDS011;43675;50.030;21.952;2024-02-23T09:03:12;17.20;;;15.90;;
57846;SDS011;43675;50.030;21.952;2024-02-23T09:05:39;17.90;;;16.60;;
57846;SDS011;43675;50.030;21.952;2024-02-23T09:08:12;17.80;;;16.40;;
57846;SDS011;43675;50.030;21.952;2024-02-23T09:10:38;18.10;;;16.70;;
57846;SDS011;43675;50.030;21.952;2024-02-23T09:13:05;18.30;;;16.80;;
57846;SDS011;43675;50.030;21.952;2024-02-23T09:15:31;17.50;;;16.20;;
57846;SDS011;43675;50.030;21.952;2024-02-23T09:18:05;17.90;;;16.50;;
57846;SDS011;43675;50.030;21.952;2024-02-23T09:20:31;17.50;;;16.20;;
57846;SDS011;43675;50.030;21.952;2024-02-23T09:23:04;17.20;;;15.90;;
57846;SDS011;43675;50.030;21.952;2024-02-23T09:25:31;17.20;;;15.90;;
57846;SDS011;43675;50.030;21.952;2024-02-23T09:27:58;17.10;;;15.90;;
57846;SDS011;43675;50.030;21.952;2024-02-23T09:30:25;17.00;;;15.70;;
57846;SDS011;43675;50.030;21.952;2024-02-23T09:32:51;16.60;;;15.40;;
57846;SDS011;43675;50.030;21.952;2024-02-23T09:35:18;16.80;;;15.70;;
57846;SDS011;43675;50.030;21.952;2024-02-23T09:37:44;17.60;;;16.30;;
57846;SDS011;43675;50.030;21.952;2024-02-23T09:40:11;17.00;;;15.80;;
57846;SDS011;43675;50.030;21.952;2024-02-23T09:42:38;17.00;;;15.80;;
57846;SDS011;43675;50.030;21.952;2024-02-23T09:45:05;17.50;;;16.20;;
57846;SDS011;43675;50.030;21.952;2024-02-23T09:47:34;17.10;;;15.90;;
57846;SDS011;43675;50.030;21.952;2024-02-23T09:50:02;16.80;;;15.60;;
57846;SDS011;43675;50.030;21.952;2024-02-23T09:52:30;17.00;;;15.80;;
57846;SDS011;43675;50.030;21.952;2024-02-23T09:54:58;17.10;;;15.90;;
57846;SDS011;43675;50.030;21.952;2024-02-23T09:57:25;17.60;;;16.30;;
57846;SDS011;43675;50.030;21.952;2024-02-23T09:59:53;17.50;;;16.20;;
57846;SDS011;43675;50.030;21.952;2024-02-23T10:02:19;17.70;;;16.30;;
57846;SDS011;43675;50.030;21.952;2024-02-23T10:04:46;17.60;;;16.20;;
57846;SDS011;43675;50.030;21.952;2024-02-23T10:07:16;16.80;;;15.50;;
57846;SDS011;43675;50.030;21.952;2024-02-23T10:09:43;17.70;;;16.30;;
57846;SDS011;43675;50.030;21.952;2024-02-23T10:12:17;17.60;;;16.20;;
57846;SDS011;43675;50.030;21.952;2024-02-23T10:14:43;17.60;;;16.30;;
57846;SDS011;43675;50.030;21.952;2024-02-23T10:17:17;18.90;;;17.40;;
57846;SDS011;43675;50.030;21.952;2024-02-23T10:19:44;19.90;;;18.40;;
57846;SDS011;43675;50.030;21.952;2024-02-23T10:22:10;17.10;;;15.80;;
57846;SDS011;43675;50.030;21.952;2024-02-23T10:24:37;16.60;;;15.40;;
57846;SDS011;43675;50.030;21.952;2024-02-23T10:27:04;16.60;;;15.30;;
57846;SDS011;43675;50.030;21.952;2024-02-23T10:29:30;16.50;;;15.10;;
57846;SDS011;43675;50.030;21.952;2024-02-23T10:31:57;16.60;;;15.40;;
57846;SDS011;43675;50.030;21.952;2024-02-23T10:34:24;17.20;;;15.90;;
57846;SDS011;43675;50.030;21.952;2024-02-23T10:36:52;16.60;;;15.40;;
57846;SDS011;43675;50.030;21.952;2024-02-23T10:39:28;17.00;;;15.80;;
57846;SDS011;43675;50.030;21.952;2024-02-23T10:41:56;16.90;;;15.70;;
57846;SDS011;43675;50.030;21.952;2024-02-23T10:44:24;16.60;;;15.30;;
57846;SDS011;43675;50.030;21.952;2024-02-23T10:46:54;16.80;;;15.70;;
57846;SDS011;43675;50.030;21.952;2024-02-23T10:49:23;17.30;;;16.10;;
57846;SDS011;43675;50.030;21.952;2024-02-23T10:51:50;17.10;;;15.90;;
57846;SDS011;43675;50.030;21.952;2024-02-23T10:54:18;17.20;;;16.00;;
57846;SDS011;43675;50.030;21.952;2024-02-23T10:56:46;16.50;;;15.40;;
57846;SDS011;43675;50.030;21.952;2024-02-23T10:59:13;17.90;;;16.50;;
57846;SDS011;43675;50.030;21.952;2024-02-23T11:01:40;16.20;;;15.10;;
57846;SDS011;43675;50.030;21.952;2024-02-23T11:04:07;17.40;;;16.20;;
57846;SDS011;43675;50.030;21.952;2024-02-23T11:06:35;17.20;;;15.90;;
57846;SDS011;43675;50.030;21.952;2024-02-23T11:09:07;16.80;;;15.60;;
57846;SDS011;43675;50.030;21.952;2024-02-23T11:11:38;16.30;;;15.10;;
57846;SDS011;43675;50.030;21.952;2024-02-23T11:14:07;17.40;;;16.20;;
57846;SDS011;43675;50.030;21.952;2024-02-23T11:16:38;17.90;;;16.70;;
57846;SDS011;43675;50.030;21.952;2024-02-23T11:19:06;17.90;;;16.60;;
57846;SDS011;43675;50.030;21.952;2024-02-23T11:21:35;17.50;;;16.30;;
57846;SDS011;43675;50.030;21.952;2024-02-23T11:24:03;17.00;;;15.80;;
57846;SDS011;43675;50.030;21.952;2024-02-23T11:29:12;16.20;;;15.00;;
57846;SDS011;43675;50.030;21.952;2024-02-23T11:31:44;16.70;;;15.50;;
57846;SDS011;43675;50.030;21.952;2024-02-23T11:34:12;17.00;;;15.80;;
57846;SDS011;43675;50.030;21.952;2024-02-23T11:36:38;17.00;;;15.80;;
57846;SDS011;43675;50.030;21.952;2024-02-23T11:39:12;16.30;;;15.20;;
57846;SDS011;43675;50.030;21.952;2024-02-23T11:41:39;16.40;;;15.20;;
57846;SDS011;43675;50.030;21.952;2024-02-23T11:44:06;16.20;;;15.00;;
57846;SDS011;43675;50.030;21.952;2024-02-23T11:46:33;16.70;;;15.40;;
57846;SDS011;43675;50.030;21.952;2024-02-23T11:48:59;16.80;;;15.40;;
57846;SDS011;43675;50.030;21.952;2024-02-23T11:51:26;16.50;;;15.20;;
57846;SDS011;43675;50.030;21.952;2024-02-23T11:53:53;16.80;;;15.60;;
57846;SDS011;43675;50.030;21.952;2024-02-23T11:56:21;16.30;;;15.10;;
57846;SDS011;43675;50.030;21.952;2024-02-23T11:58:53;16.60;;;15.40;;
57846;SDS011;43675;50.030;21.952;2024-02-23T12:01:20;16.90;;;15.70;;
57846;SDS011;43675;50.030;21.952;2024-02-23T12:03:54;17.20;;;15.90;;
57846;SDS011;43675;50.030;21.952;2024-02-23T12:06:21;18.50;;;17.10;;
57846;SDS011;43675;50.030;21.952;2024-02-23T12:08:48;18.90;;;17.40;;
57846;SDS011;43675;50.030;21.952;2024-02-23T12:11:14;18.50;;;17.00;;
57846;SDS011;43675;50.030;21.952;2024-02-23T12:13:41;19.10;;;17.50;;
57846;SDS011;43675;50.030;21.952;2024-02-23T12:16:15;19.70;;;18.10;;
57846;SDS011;43675;50.030;21.952;2024-02-23T12:18:52;18.40;;;17.00;;
57846;SDS011;43675;50.030;21.952;2024-02-23T12:21:19;18.60;;;17.20;;
57846;SDS011;43675;50.030;21.952;2024-02-23T12:23:48;17.90;;;16.60;;
57846;SDS011;43675;50.030;21.952;2024-02-23T12:26:18;16.90;;;15.70;;
57846;SDS011;43675;50.030;21.952;2024-02-23T12:28:45;17.20;;;16.00;;
57846;SDS011;43675;50.030;21.952;2024-02-23T12:31:12;17.20;;;16.00;;
57846;SDS011;43675;50.030;21.952;2024-02-23T12:33:39;17.10;;;15.90;;
57846;SDS011;43675;50.030;21.952;2024-02-23T12:36:06;16.70;;;15.60;;
57846;SDS011;43675;50.030;21.952;2024-02-23T12:38:41;17.80;;;16.50;;
57846;SDS011;43675;50.030;21.952;2024-02-23T12:41:08;17.70;;;16.40;;
57846;SDS011;43675;50.030;21.952;2024-02-23T12:43:35;17.40;;;16.10;;
57846;SDS011;43675;50.030;21.952;2024-02-23T12:46:02;17.60;;;16.30;;
57846;SDS011;43675;50.030;21.952;2024-02-23T12:48:28;17.70;;;16.30;;
57846;SDS011;43675;50.030;21.952;2024-02-23T12:50:55;18.80;;;17.30;;
57846;SDS011;43675;50.030;21.952;2024-02-23T12:53:41;19.10;;;17.70;;
57846;SDS011;43675;50.030;21.952;2024-02-23T12:56:09;18.40;;;17.00;;
57846;SDS011;43675;50.030;21.952;2024-02-23T12:58:38;18.30;;;16.80;;
57846;SDS011;43675;50.030;21.952;2024-02-23T13:01:06;18.60;;;17.10;;
57846;SDS011;43675;50.030;21.952;2024-02-23T13:03:33;19.00;;;17.40;;
57846;SDS011;43675;50.030;21.952;2024-02-23T13:06:01;19.30;;;17.80;;
57846;SDS011;43675;50.030;21.952;2024-02-23T13:08:28;20.00;;;18.20;;
57846;SDS011;43675;50.030;21.952;2024-02-23T13:10:55;18.10;;;16.60;;
57846;SDS011;43675;50.030;21.952;2024-02-23T13:13:23;17.70;;;16.30;;
57846;SDS011;43675;50.030;21.952;2024-02-23T13:15:51;17.00;;;15.70;;
57846;SDS011;43675;50.030;21.952;2024-02-23T13:18:18;16.70;;;15.50;;
57846;SDS011;43675;50.030;21.952;2024-02-23T13:20:44;16.10;;;15.00;;
57846;SDS011;43675;50.030;21.952;2024-02-23T13:23:12;16.30;;;15.20;;
57846;SDS011;43675;50.030;21.952;2024-02-23T13:25:39;15.70;;;14.50;;
57846;SDS011;43675;50.030;21.952;2024-02-23T13:28:06;16.30;;;15.20;;
57846;SDS011;43675;50.030;21.952;2024-02-23T13:30:34;16.40;;;15.20;;
57846;SDS011;43675;50.030;21.952;2024-02-23T13:33:08;16.30;;;15.10;;
57846;SDS011;43675;50.030;21.952;2024-02-23T13:35:35;17.00;;;15.80;;
57846;SDS011;43675;50.030;21.952;2024-02-23T13:38:01;18.70;;;17.10;;
57846;SDS011;43675;50.030;21.952;2024-02-23T13:40:29;18.20;;;16.80;;
57846;SDS011;43675;50.030;21.952;2024-02-23T13:42:56;17.70;;;16.30;;
57846;SDS011;43675;50.030;21.952;2024-02-23T13:45:22;18.80;;;17.10;;
57846;SDS011;43675;50.030;21.952;2024-02-23T13:47:59;17.00;;;15.70;;
57846;SDS011;43675;50.030;21.952;2024-02-23T13:50:27;17.20;;;15.80;;
57846;SDS011;43675;50.030;21.952;2024-02-23T13:52:54;17.60;;;16.20;;
57846;SDS011;43675;50.030;21.952;2024-02-23T13:55:21;18.20;;;16.80;;
57846;SDS011;43675;50.030;21.952;2024-02-23T13:57:48;18.40;;;16.90;;
57846;SDS011;43675;50.030;21.952;2024-02-23T14:00:16;18.90;;;17.40;;
57846;SDS011;43675;50.030;21.952;2024-02-23T14:02:44;19.30;;;17.60;;
57846;SDS011;43675;50.030;21.952;2024-02-23T14:05:10;20.30;;;18.50;;
57846;SDS011;43675;50.030;21.952;2024-02-23T14:07:38;19.80;;;18.10;;
57846;SDS011;43675;50.030;21.952;2024-02-23T14:10:04;19.10;;;17.50;;
57846;SDS011;43675;50.030;21.952;2024-02-23T14:12:31;18.20;;;16.80;;